Meteo Giornale » Osservazioni meteo Italia » Milano-Malpensa

ore: 18:50 - Osservazioni Meteo Milano-Malpensa
Lat. 45° 37' N Lon. 8° 44' E Alt. 234 metri s.l.m.

sereno Europe/Rome

30 °C

Sereno

Temp. 24 Ore

19 °C

30 °C

Sud-Ovest

14.8 Km/h

Dew point 17 °C

Umidità 45 %

Visibilità  10 Km

Il sole sorge alle ore 05:34

Il sole tramonta alle ore 21:19

Data e Ora Cielo e Fenomeni T °C DP °C Um. % Pres. hPa Vis. km Vento km/h
Oggi h: 18:50 sereno Sereno 30 17 45 1012 10 SO 14.8
Oggi h: 17:50 sereno Sereno 30 15 40 1012 10 SO 16.7
Oggi h: 17:20 sereno Sereno 30 17 45 1013 10 SO 13
Oggi h: 16:50 sereno Sereno 30 17 45 1013 10 SO 14.8
Oggi h: 16:20 sereno Sereno 30 17 45 1013 10 O/SO 14.8
Oggi h: 15:50 sereno Sereno 30 15 40 1014 10 O/SO 14.8
Oggi h: 14:50 sereno Sereno 30 16 42 1014 10 S/SO 13
Oggi h: 14:20 sereno Sereno 30 16 42 1015 10 O/SO 9.3
Oggi h: 13:20 poco_nuvoloso Poco Nuvoloso 29 15 42 1016 10 O/SO 9.3
Oggi h: 12:50 poco_nuvoloso Poco Nuvoloso 29 17 48 1016 10 O 7.4
Oggi h: 12:20 sereno Sereno 28 17 51 1016 10 SO 9.3
Oggi h: 11:50 sereno Sereno 28 17 51 1016 10 SO 7.4
Oggi h: 11:20 sereno Sereno 28 16 48 1016 10 S/SO 7.4
Oggi h: 10:50 sereno Sereno 28 16 48 1017 10 N 5.5
Oggi h: 10:20 sereno Sereno 28 18 54 1017 10 N 1.8
Oggi h: 09:50 sereno Sereno 28 16 48 1017 10 N 1.8
Oggi h: 09:20 sereno Sereno 26 18 61 1017 10 N 3.7
Oggi h: 08:50 sereno Sereno 24 18 69 1017 10 N/NE 7.4
Oggi h: 08:20 sereno Sereno 24 18 69 1017 10 N 9.3
Oggi h: 07:50 sereno Sereno 22 18 78 1017 10 N 9.3
Oggi h: 07:20 sereno Sereno 21 18 82 1017 10 N 9.3
Oggi h: 06:50 sereno Sereno 20 18 88 1017 10 N 9.3
Oggi h: 06:20 sereno Sereno 20 18 88 1017 10 N 9.3
Oggi h: 05:50 sereno Sereno 19 17 88 1017 10 N 16.7
Oggi h: 05:20 sereno Sereno 19 18 93 1017 10 N 18.5
Oggi h: 04:50 nuvoloso Nuvoloso 20 18 88 1018 10 N 11.1
Oggi h: 04:20 nuvoloso Nuvoloso 20 18 88 1018 10 N/NE 9.3
Oggi h: 03:50 molto_nuvoloso Molto Nuvoloso 20 18 88 1018 10 N 13
Oggi h: 03:20 molto_nuvoloso Molto Nuvoloso 21 18 82 1018 10 N 14.8
Oggi h: 02:50 molto_nuvoloso Molto Nuvoloso 21 18 82 1018 10 N 9.3
Oggi h: 02:20 molto_nuvoloso Molto Nuvoloso 21 18 82 1019 10 N/NE 9.3
Oggi h: 01:50 coperto_temporali Temporale 22 19 83 1019 10 N 11.1
Oggi h: 01:20 nuvoloso_temporali Temporale con Pioggia Debole 22 19 83 1019 10 N/NO 11.1
Oggi h: 00:50 nuvoloso_temporali Temporale con Pioggia Debole 24 18 69 1019 10 N/NO 11.1
Oggi h: 00:20 nuvoloso_temporali Temporale con Pioggia Debole 23 17 68 1019 10 N 5.5
Ieri h: 23:50 coperto_pioggia Pioggia Debole 25 17 61 1019 10 E/SE 9.3
Ieri h: 23:20 molto_nuvoloso Molto Nuvoloso 26 16 54 1019 10 N 1.8
Ieri h: 22:50 sereno Sereno 26 15 50 1019 10 N 5.5
Ieri h: 22:20 sereno Sereno 25 16 57 1019 10 N 3.7
Ieri h: 21:50 sereno Sereno 27 15 47 1019 10 O/NO 7.4
Ieri h: 21:20 sereno Sereno 28 14 42 1018 10 O 7.4
Ieri h: 20:50 sereno Sereno 28 14 42 1018 10 O 9.3
Ieri h: 20:20 sereno Sereno 29 14 39 1018 10 O/SO 9.3
Ieri h: 19:50 sereno Sereno 29 15 42 1018 10 O 9.3